Time;durP1;ratioP1;P1;durP2;ratioP2;P2;SDS_P1;SDS_P2;PMS_P1;PMS_P2;Temp;Humidity;BMP_temperature;BMP_pressure;BME280_temperature;BME280_humidity;BME280_pressure;Samples;Min_cycle;Max_cycle;Signal;HPM_P1;HPM_P2
2024/04/13 00:02:20;;;;;;;20.77;4.15;;;12.00;99.90;;;;;;5387322;26;20019;-76
2024/04/13 00:04:45;;;;;;;11.77;3.88;;;11.90;99.90;;;;;;5388804;26;20667;-75
2024/04/13 00:07:11;;;;;;;10.98;3.50;;;12.00;99.90;;;;;;5403312;26;20011;-75
2024/04/13 00:09:36;;;;;;;15.75;4.68;;;12.00;99.90;;;;;;5394266;26;20049;-75
2024/04/13 00:12:02;;;;;;;11.43;4.55;;;11.90;99.90;;;;;;5390598;26;20465;-74
2024/04/13 00:14:28;;;;;;;11.82;3.92;;;11.90;99.90;;;;;;5403520;26;20015;-74
2024/04/13 00:16:53;;;;;;;12.30;4.82;;;12.00;99.90;;;;;;5402064;26;20017;-75
2024/04/13 00:19:19;;;;;;;13.20;4.72;;;12.10;99.90;;;;;;5402715;26;20008;-74
2024/04/13 00:21:45;;;;;;;11.23;5.05;;;12.10;99.90;;;;;;5403186;26;20473;-75
2024/04/13 00:24:13;;;;;;;7.68;4.05;;;12.00;99.90;;;;;;5393343;26;20003;-73
2024/04/13 00:26:38;;;;;;;14.50;5.10;;;11.90;99.90;;;;;;5391592;26;20019;-75
2024/04/13 00:29:05;;;;;;;15.13;5.13;;;11.90;99.90;;;;;;5401774;26;20070;-74
2024/04/13 00:31:32;;;;;;;10.98;4.93;;;11.90;99.90;;;;;;5394803;26;20461;-75
2024/04/13 00:33:58;;;;;;;12.07;4.85;;;11.80;99.90;;;;;;5387315;26;20032;-74
2024/04/13 00:36:24;;;;;;;11.73;5.05;;;11.70;99.90;;;;;;5391321;26;20010;-75
2024/04/13 00:38:50;;;;;;;10.23;4.32;;;11.70;99.90;;;;;;5402729;26;20040;-74
2024/04/13 00:41:18;;;;;;;9.98;4.30;;;11.60;99.90;;;;;;5396641;26;20004;-75
2024/04/13 00:43:43;;;;;;;11.40;4.10;;;11.60;99.90;;;;;;5411411;26;20006;-74
2024/04/13 00:46:16;;;;;;;9.07;4.60;;;11.60;99.90;;;;;;5400350;26;19999;-74
2024/04/13 00:48:42;;;;;;;7.82;3.97;;;11.60;99.90;;;;;;5395291;26;20070;-75
2024/04/13 00:51:12;;;;;;;12.93;4.80;;;11.60;99.90;;;;;;5401131;26;19999;-74
2024/04/13 00:53:40;;;;;;;9.50;5.03;;;11.50;99.90;;;;;;5397572;26;20004;-74
2024/04/13 00:56:07;;;;;;;14.95;4.63;;;11.50;99.90;;;;;;5392725;26;20027;-74
2024/04/13 00:58:36;;;;;;;11.48;4.47;;;11.50;99.90;;;;;;5388812;26;20432;-75
2024/04/13 01:01:03;;;;;;;9.60;4.53;;;11.50;99.90;;;;;;5407221;26;21585;-74
2024/04/13 01:03:29;;;;;;;10.23;3.90;;;11.30;99.90;;;;;;5394693;26;20015;-76
2024/04/13 01:05:57;;;;;;;14.65;4.85;;;11.40;99.90;;;;;;5386597;26;20350;-75
2024/04/13 01:08:23;;;;;;;12.00;4.90;;;11.50;99.90;;;;;;5390899;26;20093;-75
2024/04/13 01:10:48;;;;;;;10.80;4.05;;;11.50;99.90;;;;;;5401232;26;20012;-74
2024/04/13 01:13:18;;;;;;;10.85;4.82;;;11.40;99.90;;;;;;5407227;26;20101;-75
2024/04/13 01:15:43;;;;;;;9.20;4.45;;;11.40;99.90;;;;;;5404883;26;20016;-75
2024/04/13 01:18:10;;;;;;;10.30;4.88;;;11.40;99.90;;;;;;5396550;26;19995;-74
2024/04/13 01:20:39;;;;;;;12.18;4.88;;;11.40;99.90;;;;;;5398069;26;20003;-74
2024/04/13 01:23:06;;;;;;;7.25;4.15;;;11.40;99.90;;;;;;5398000;26;20014;-74
2024/04/13 01:25:32;;;;;;;8.90;4.00;;;11.40;99.90;;;;;;5395877;26;20008;-75
2024/04/13 01:27:58;;;;;;;10.35;4.78;;;11.40;99.90;;;;;;5390468;26;20004;-74
2024/04/13 01:30:24;;;;;;;17.10;4.82;;;11.40;99.90;;;;;;5391188;26;20010;-75
2024/04/13 01:32:51;;;;;;;13.40;4.22;;;11.40;99.90;;;;;;5404826;26;20453;-74
2024/04/13 01:35:19;;;;;;;10.63;5.13;;;11.40;99.90;;;;;;5394614;26;20344;-74
2024/04/13 01:37:45;;;;;;;11.82;4.90;;;11.40;99.90;;;;;;5392039;26;20055;-75
2024/04/13 01:40:11;;;;;;;9.45;4.10;;;11.20;99.90;;;;;;5405300;26;20457;-74
2024/04/13 01:42:39;;;;;;;10.18;4.78;;;11.20;99.90;;;;;;5401836;26;20012;-74
2024/04/13 01:45:05;;;;;;;10.48;4.90;;;11.20;99.90;;;;;;5406399;26;20008;-75
2024/04/13 01:47:30;;;;;;;16.42;5.15;;;11.10;99.90;;;;;;5399561;26;20509;-74
2024/04/13 01:49:56;;;;;;;10.30;4.60;;;10.90;99.90;;;;;;5393018;26;20354;-75
2024/04/13 01:52:22;;;;;;;11.77;4.90;;;10.80;99.90;;;;;;5394443;26;20004;-75
2024/04/13 01:54:47;;;;;;;9.68;4.55;;;10.80;99.90;;;;;;5399428;26;20004;-75
2024/04/13 01:57:13;;;;;;;12.20;5.03;;;10.70;99.90;;;;;;5398599;26;20004;-75
2024/04/13 01:59:42;;;;;;;13.95;5.25;;;10.70;99.90;;;;;;5386165;26;20015;-75
2024/04/13 02:02:09;;;;;;;12.80;5.00;;;10.70;99.90;;;;;;5399399;26;20022;-74
2024/04/13 02:04:35;;;;;;;8.38;4.60;;;10.70;99.90;;;;;;5403843;26;20073;-73
2024/04/13 02:07:02;;;;;;;13.15;5.22;;;10.70;99.90;;;;;;5405598;26;20004;-74
2024/04/13 02:09:28;;;;;;;12.10;4.95;;;10.60;99.90;;;;;;5435795;26;20334;-74
2024/04/13 02:11:54;;;;;;;8.98;4.20;;;10.60;99.90;;;;;;5394820;26;20091;-74
2024/04/13 02:14:19;;;;;;;13.55;4.75;;;10.60;99.90;;;;;;5399606;26;19996;-75
2024/04/13 02:16:45;;;;;;;12.40;4.65;;;10.60;99.90;;;;;;5401810;26;20000;-74
2024/04/13 02:19:12;;;;;;;10.30;4.57;;;10.70;99.90;;;;;;5400795;26;20010;-75
2024/04/13 02:21:38;;;;;;;8.52;4.32;;;10.80;99.90;;;;;;5395018;26;19996;-74
2024/04/13 02:24:04;;;;;;;9.35;4.60;;;10.80;99.90;;;;;;5393861;26;20016;-75
2024/04/13 02:26:29;;;;;;;10.65;4.57;;;10.70;99.90;;;;;;5398352;26;19999;-74
2024/04/13 02:28:55;;;;;;;10.30;4.50;;;10.70;99.90;;;;;;5397309;26;20010;-73
2024/04/13 02:31:20;;;;;;;13.90;4.78;;;10.70;99.90;;;;;;5384154;26;19997;-74
2024/04/13 02:33:46;;;;;;;9.05;4.32;;;10.60;99.90;;;;;;5400171;26;19996;-74
2024/04/13 02:36:12;;;;;;;15.27;5.15;;;10.60;99.90;;;;;;5403520;26;20011;-75
2024/04/13 02:38:39;;;;;;;12.85;4.72;;;10.70;99.90;;;;;;5401894;26;20035;-74
2024/04/13 02:41:05;;;;;;;10.93;5.10;;;10.80;99.90;;;;;;5431719;26;20008;-73
2024/04/13 02:43:31;;;;;;;10.48;4.30;;;10.80;99.90;;;;;;5407049;26;20011;-74
2024/04/13 02:46:08;;;;;;;13.25;4.97;;;10.80;99.90;;;;;;5396932;26;20008;-75
2024/04/13 02:48:42;;;;;;;9.57;4.65;;;10.60;99.90;;;;;;5399949;26;20073;-75
2024/04/13 02:51:08;;;;;;;11.13;5.18;;;10.80;99.90;;;;;;5400843;26;20004;-74
2024/04/13 02:53:35;;;;;;;12.05;4.80;;;10.60;99.90;;;;;;5386793;26;20286;-74
2024/04/13 02:56:02;;;;;;;9.32;4.95;;;10.70;99.90;;;;;;5397727;26;20004;-74
2024/04/13 02:58:27;;;;;;;8.20;4.45;;;10.60;99.90;;;;;;5396110;26;19999;-75
2024/04/13 03:00:54;;;;;;;10.07;4.65;;;10.50;99.90;;;;;;5394884;26;20011;-74
2024/04/13 03:03:20;;;;;;;10.23;4.45;;;10.60;99.90;;;;;;5401506;26;19995;-75
2024/04/13 03:05:45;;;;;;;9.05;4.90;;;10.50;99.90;;;;;;5393802;26;20007;-74
2024/04/13 03:08:11;;;;;;;9.38;4.65;;;10.50;99.90;;;;;;5403054;26;20003;-74
2024/04/13 03:10:37;;;;;;;11.68;5.15;;;10.60;99.90;;;;;;5409216;26;20003;-74
2024/04/13 03:13:03;;;;;;;9.30;4.72;;;10.60;99.90;;;;;;5401305;26;20515;-73
2024/04/13 03:15:29;;;;;;;9.43;5.28;;;10.30;99.90;;;;;;5389032;26;20073;-74
2024/04/13 03:17:54;;;;;;;8.60;4.40;;;10.30;99.90;;;;;;5393285;26;20034;-74
2024/04/13 03:20:20;;;;;;;13.48;4.47;;;10.20;99.90;;;;;;5400803;26;19999;-74
2024/04/13 03:22:46;;;;;;;9.70;4.35;;;10.40;99.90;;;;;;5392837;26;20538;-74
2024/04/13 03:25:11;;;;;;;11.23;4.55;;;10.30;99.90;;;;;;5388911;26;20027;-75
2024/04/13 03:27:37;;;;;;;10.65;4.18;;;10.30;99.90;;;;;;5400055;26;19995;-74
2024/04/13 03:30:02;;;;;;;16.35;5.07;;;10.20;99.90;;;;;;5404132;26;20027;-75
2024/04/13 03:32:28;;;;;;;10.60;4.30;;;10.20;99.90;;;;;;5404441;26;20391;-75
2024/04/13 03:34:54;;;;;;;10.80;4.55;;;10.20;99.90;;;;;;5403242;26;20044;-74
2024/04/13 03:37:20;;;;;;;8.23;4.95;;;10.30;99.90;;;;;;5400584;26;20076;-74
2024/04/13 03:39:45;;;;;;;14.07;4.75;;;10.20;99.90;;;;;;5396664;26;19996;-74
2024/04/13 03:42:11;;;;;;;8.82;4.65;;;10.20;99.90;;;;;;5409306;26;20731;-74
2024/04/13 03:44:36;;;;;;;10.52;4.25;;;10.00;99.90;;;;;;5397882;26;20010;-73
2024/04/13 03:47:02;;;;;;;8.25;4.75;;;10.00;99.90;;;;;;5391196;26;20009;-75
2024/04/13 03:49:29;;;;;;;10.40;4.68;;;9.90;99.90;;;;;;5390078;26;20009;-74
2024/04/13 03:51:56;;;;;;;10.18;4.13;;;9.80;99.90;;;;;;5398385;26;19995;-74
2024/04/13 03:54:21;;;;;;;11.85;4.20;;;9.80;99.90;;;;;;5401329;26;20010;-74
2024/04/13 03:56:48;;;;;;;11.18;4.43;;;9.90;99.90;;;;;;5385518;26;20000;-74
2024/04/13 03:59:13;;;;;;;10.30;4.70;;;9.90;99.90;;;;;;5399709;26;19996;-75
2024/04/13 04:01:39;;;;;;;9.00;4.53;;;10.00;99.90;;;;;;5398943;26;20068;-74
2024/04/13 04:04:05;;;;;;;10.18;4.18;;;10.10;99.90;;;;;;5406405;26;20061;-75
2024/04/13 04:06:30;;;;;;;14.32;4.65;;;10.10;99.90;;;;;;5400136;26;20000;-74
2024/04/13 04:08:56;;;;;;;10.95;4.93;;;10.20;99.90;;;;;;5393660;26;20405;-74
2024/04/13 04:11:21;;;;;;;8.52;4.32;;;10.10;99.90;;;;;;5410968;26;20010;-74
2024/04/13 04:13:47;;;;;;;10.02;4.43;;;9.90;99.90;;;;;;5401223;26;20002;-74
2024/04/13 04:16:12;;;;;;;9.77;4.15;;;9.90;99.90;;;;;;5404707;26;20008;-75
2024/04/13 04:18:40;;;;;;;11.88;4.68;;;9.90;99.90;;;;;;5393940;26;20000;-75
2024/04/13 04:21:06;;;;;;;6.47;3.88;;;10.00;99.90;;;;;;5402824;26;20750;-74
2024/04/13 04:23:32;;;;;;;11.38;4.28;;;10.00;99.90;;;;;;5407331;26;20027;-75
2024/04/13 04:25:58;;;;;;;12.13;4.20;;;10.00;99.90;;;;;;5405538;26;20004;-74
2024/04/13 04:28:23;;;;;;;7.95;4.05;;;9.90;99.90;;;;;;5407780;26;20442;-74
2024/04/13 04:30:49;;;;;;;10.88;4.43;;;9.80;99.90;;;;;;5396485;26;20010;-74
2024/04/13 04:33:14;;;;;;;14.48;4.40;;;9.80;99.90;;;;;;5401944;26;20015;-74
2024/04/13 04:35:40;;;;;;;6.80;3.65;;;9.90;99.90;;;;;;5404177;26;20006;-74
2024/04/13 04:38:06;;;;;;;9.90;4.85;;;10.00;99.90;;;;;;5402655;26;19997;-74
2024/04/13 04:40:32;;;;;;;14.48;4.70;;;9.80;99.90;;;;;;5397033;26;20460;-75
2024/04/13 04:42:57;;;;;;;14.05;4.70;;;10.00;99.90;;;;;;5396469;26;19992;-74
2024/04/13 04:45:23;;;;;;;13.10;4.32;;;10.10;99.90;;;;;;5405290;26;20031;-75
2024/04/13 04:47:49;;;;;;;9.05;4.03;;;10.00;99.90;;;;;;5400305;26;20466;-74
2024/04/13 04:50:15;;;;;;;9.52;4.05;;;9.80;99.90;;;;;;5394926;26;20007;-74
2024/04/13 04:52:41;;;;;;;7.82;3.90;;;9.80;99.90;;;;;;5413001;26;20007;-74
2024/04/13 04:55:06;;;;;;;10.73;4.72;;;9.70;99.90;;;;;;5405487;26;20007;-74
2024/04/13 04:57:32;;;;;;;11.35;5.00;;;9.80;99.90;;;;;;5408203;26;19995;-74
2024/04/13 04:59:57;;;;;;;8.25;4.05;;;9.90;99.90;;;;;;5406064;26;19996;-75
2024/04/13 05:02:24;;;;;;;7.25;4.22;;;9.80;99.90;;;;;;5400324;26;19996;-73
2024/04/13 05:04:50;;;;;;;6.68;4.18;;;9.70;99.90;;;;;;5398088;26;20800;-73
2024/04/13 05:07:15;;;;;;;7.32;3.83;;;9.70;99.90;;;;;;5406101;26;20015;-73
2024/04/13 05:09:41;;;;;;;9.82;4.60;;;9.70;99.90;;;;;;5400680;26;20011;-74
2024/04/13 05:12:07;;;;;;;10.05;4.18;;;9.70;99.90;;;;;;5395919;26;20015;-74
2024/04/13 05:14:32;;;;;;;12.13;4.45;;;9.70;99.90;;;;;;5396130;26;20003;-73
2024/04/13 05:16:58;;;;;;;11.73;4.38;;;9.90;99.90;;;;;;5432025;26;20537;-74
2024/04/13 05:19:24;;;;;;;12.38;4.22;;;10.00;99.90;;;;;;5401776;26;20088;-74
2024/04/13 05:21:49;;;;;;;19.15;4.70;;;10.10;99.90;;;;;;5397318;26;20009;-75
2024/04/13 05:24:15;;;;;;;12.88;4.60;;;10.10;99.90;;;;;;5408364;26;20789;-73
2024/04/13 05:26:42;;;;;;;6.40;3.88;;;10.30;99.90;;;;;;5402076;26;20004;-73
2024/04/13 05:29:09;;;;;;;5.70;3.33;;;10.30;99.90;;;;;;5404166;26;20000;-74
2024/04/13 05:31:34;;;;;;;9.38;4.30;;;10.10;99.90;;;;;;5404908;26;19996;-75
2024/04/13 05:34:00;;;;;;;10.07;3.78;;;10.10;99.90;;;;;;5390240;26;20159;-73
2024/04/13 05:36:25;;;;;;;9.60;4.05;;;10.10;99.90;;;;;;5402289;26;20483;-74
2024/04/13 05:38:51;;;;;;;12.90;3.80;;;10.40;99.90;;;;;;5397147;26;20766;-74
2024/04/13 05:41:16;;;;;;;13.20;5.55;;;10.50;99.90;;;;;;5403049;26;20053;-74
2024/04/13 05:43:42;;;;;;;12.13;4.68;;;10.40;99.90;;;;;;5394541;26;20000;-74
2024/04/13 05:46:07;;;;;;;9.40;4.35;;;10.40;99.90;;;;;;5400015;26;20010;-75
2024/04/13 05:48:33;;;;;;;11.40;4.60;;;10.40;99.90;;;;;;5408473;26;20050;-74
2024/04/13 05:51:03;;;;;;;8.48;4.10;;;10.40;99.90;;;;;;5405599;26;20479;-75
2024/04/13 05:53:29;;;;;;;13.35;4.15;;;10.50;99.90;;;;;;5409934;26;20043;-75
2024/04/13 05:55:54;;;;;;;15.13;4.28;;;10.80;99.90;;;;;;5398065;26;20003;-73
2024/04/13 05:58:20;;;;;;;8.52;4.10;;;10.80;99.90;;;;;;5399160;26;20003;-74
2024/04/13 06:00:46;;;;;;;13.13;4.70;;;10.80;99.90;;;;;;5401817;26;19999;-74
2024/04/13 06:03:13;;;;;;;14.85;4.10;;;10.80;99.90;;;;;;5403674;26;20073;-74
2024/04/13 06:05:43;;;;;;;10.30;4.45;;;10.80;99.90;;;;;;5386354;26;20508;-75
2024/04/13 06:08:09;;;;;;;10.48;4.28;;;11.00;99.90;;;;;;5397415;26;19999;-74
2024/04/13 06:10:35;;;;;;;14.60;4.47;;;11.00;99.90;;;;;;5403365;26;20006;-74
2024/04/13 06:13:00;;;;;;;9.55;4.45;;;11.00;99.90;;;;;;5399532;26;20420;-74
2024/04/13 06:15:26;;;;;;;11.43;4.15;;;10.80;99.90;;;;;;5391431;26;19999;-74
2024/04/13 06:17:51;;;;;;;8.75;4.55;;;10.90;99.90;;;;;;5400250;26;19996;-74
2024/04/13 06:20:17;;;;;;;9.88;4.15;;;11.00;99.90;;;;;;5406457;26;19992;-74
2024/04/13 06:22:42;;;;;;;14.80;4.53;;;10.90;99.90;;;;;;5399967;26;20009;-74
2024/04/13 06:25:10;;;;;;;9.60;4.38;;;10.80;99.90;;;;;;5404544;26;20011;-73
2024/04/13 06:27:38;;;;;;;10.00;4.53;;;11.00;99.90;;;;;;5396588;26;20019;-74
2024/04/13 06:30:05;;;;;;;13.18;4.80;;;11.00;99.90;;;;;;5401147;26;20008;-75
2024/04/13 06:32:31;;;;;;;16.25;4.57;;;11.20;99.90;;;;;;5402582;26;20353;-74
2024/04/13 06:34:56;;;;;;;9.73;4.05;;;11.20;99.90;;;;;;5394784;26;19996;-73
2024/04/13 06:37:23;;;;;;;11.82;4.20;;;11.40;99.90;;;;;;5397516;26;20630;-74
2024/04/13 06:39:48;;;;;;;16.15;5.00;;;11.30;99.90;;;;;;5391660;26;20004;-74
2024/04/13 06:42:14;;;;;;;14.45;4.82;;;11.40;99.90;;;;;;5405002;26;20014;-74
2024/04/13 06:44:40;;;;;;;13.93;5.53;;;11.50;99.90;;;;;;5401541;26;20039;-74
2024/04/13 06:47:05;;;;;;;31.13;6.60;;;11.60;99.90;;;;;;5400917;26;20003;-75
2024/04/13 06:49:31;;;;;;;17.88;5.65;;;11.70;99.90;;;;;;5400883;26;20007;-74
2024/04/13 06:51:56;;;;;;;20.77;4.88;;;11.70;99.90;;;;;;5401322;26;19995;-74
2024/04/13 06:54:22;;;;;;;17.80;5.97;;;11.80;99.90;;;;;;5397139;26;20003;-73
2024/04/13 06:56:47;;;;;;;16.48;5.60;;;11.80;99.90;;;;;;5392608;26;20019;-74
2024/04/13 06:59:13;;;;;;;26.85;5.90;;;12.00;99.90;;;;;;5386389;26;20004;-74
2024/04/13 07:01:38;;;;;;;12.80;5.13;;;12.00;99.90;;;;;;5395866;26;20011;-75
2024/04/13 07:04:04;;;;;;;20.77;7.28;;;12.10;99.90;;;;;;5400746;26;20010;-74
2024/04/13 07:06:36;;;;;;;20.75;5.00;;;12.10;99.90;;;;;;5399344;26;20007;-74
2024/04/13 07:09:02;;;;;;;13.57;5.32;;;12.20;99.90;;;;;;5392728;26;20000;-77
2024/04/13 07:11:28;;;;;;;19.80;5.10;;;12.30;99.90;;;;;;5404546;26;20009;-76
2024/04/13 07:13:53;;;;;;;18.90;5.80;;;12.40;99.90;;;;;;5409502;26;20018;-76
2024/04/13 07:16:19;;;;;;;11.95;5.15;;;12.40;99.90;;;;;;5402833;26;20081;-76
2024/04/13 07:18:44;;;;;;;12.32;4.60;;;12.50;99.90;;;;;;5405320;26;20000;-76
2024/04/13 07:21:10;;;;;;;7.43;4.75;;;12.60;99.90;;;;;;5396644;26;20036;-76
2024/04/13 07:23:36;;;;;;;15.27;5.28;;;12.60;99.90;;;;;;5394376;26;20079;-76
2024/04/13 07:26:04;;;;;;;16.50;5.30;;;12.60;99.90;;;;;;5401988;26;20389;-77
2024/04/13 07:28:31;;;;;;;14.07;6.18;;;12.70;99.90;;;;;;5398823;26;20388;-77
2024/04/13 07:30:58;;;;;;;17.42;5.55;;;12.80;99.90;;;;;;5391392;26;20561;-76
2024/04/13 07:33:23;;;;;;;19.13;6.50;;;12.90;99.90;;;;;;5394181;26;20029;-76
2024/04/13 07:35:49;;;;;;;11.73;5.97;;;12.90;99.90;;;;;;5403324;26;20552;-76
2024/04/13 07:38:15;;;;;;;15.52;6.38;;;13.00;99.90;;;;;;5402324;26;20004;-76
2024/04/13 07:40:41;;;;;;;17.42;6.97;;;13.10;99.90;;;;;;5399776;26;19996;-78
2024/04/13 07:43:07;;;;;;;18.45;6.85;;;13.10;99.90;;;;;;5406954;26;20047;-76
2024/04/13 07:45:32;;;;;;;19.55;6.47;;;13.40;99.90;;;;;;5407242;26;20019;-76
2024/04/13 07:47:58;;;;;;;9.63;5.30;;;13.60;99.90;;;;;;5409761;26;20029;-67
2024/04/13 07:50:24;;;;;;;5.47;2.63;;;13.70;99.90;;;;;;5408373;26;20049;-67
2024/04/13 07:52:50;;;;;;;7.40;3.30;;;16.10;99.90;;;;;;5404641;26;19999;-68
2024/04/13 07:55:15;;;;;;;6.35;3.70;;;16.80;99.90;;;;;;5408501;26;19992;-68
2024/04/13 07:57:41;;;;;;;8.52;3.58;;;17.00;99.90;;;;;;5405523;26;20015;-68
2024/04/13 08:00:09;;;;;;;9.68;3.72;;;17.20;99.90;;;;;;5399284;26;20000;-68
2024/04/13 08:02:36;;;;;;;9.45;4.22;;;17.30;99.90;;;;;;5392570;26;20000;-68
2024/04/13 08:05:02;;;;;;;11.98;3.92;;;17.30;99.90;;;;;;5404404;26;20330;-68
2024/04/13 08:07:27;;;;;;;9.18;4.10;;;17.40;99.90;;;;;;5408921;26;19999;-67
2024/04/13 08:09:53;;;;;;;9.32;4.30;;;17.40;99.90;;;;;;5401372;26;20080;-70
2024/04/13 08:12:19;;;;;;;6.13;3.83;;;17.40;99.90;;;;;;5409441;26;20004;-72
2024/04/13 08:14:44;;;;;;;13.35;4.38;;;17.50;99.90;;;;;;5406970;26;19993;-71
2024/04/13 08:17:10;;;;;;;8.70;4.45;;;17.60;99.90;;;;;;5399578;26;20007;-72
2024/04/13 08:19:36;;;;;;;11.15;3.92;;;17.60;99.90;;;;;;5401156;26;20031;-69
2024/04/13 08:22:02;;;;;;;10.75;4.18;;;17.60;99.90;;;;;;5401733;26;20884;-70
2024/04/13 08:24:28;;;;;;;9.70;4.65;;;17.60;99.90;;;;;;5392146;26;20000;-70
2024/04/13 08:26:53;;;;;;;8.45;4.05;;;17.80;99.90;;;;;;5394589;26;19999;-69
2024/04/13 08:29:19;;;;;;;14.18;4.90;;;17.70;99.90;;;;;;5400196;26;20000;-70
2024/04/13 08:31:45;;;;;;;8.50;4.68;;;17.80;99.90;;;;;;5403725;26;20011;-71
2024/04/13 08:34:13;;;;;;;12.40;4.40;;;17.90;99.90;;;;;;5398272;26;19996;-71
2024/04/13 08:36:39;;;;;;;10.20;5.07;;;17.90;99.90;;;;;;5398045;26;20000;-70
2024/04/13 08:39:09;;;;;;;10.15;4.40;;;18.00;99.90;;;;;;5411550;26;20368;-70
2024/04/13 08:42:03;;;;;;;12.65;5.07;;;18.00;99.90;;;;;;5405571;26;20010;-72
2024/04/13 08:44:31;;;;;;;8.52;4.53;;;18.10;99.90;;;;;;5408589;26;19996;-69
2024/04/13 08:47:00;;;;;;;13.90;5.40;;;18.10;99.90;;;;;;5403084;26;20003;-70
2024/04/13 08:49:29;;;;;;;10.65;5.15;;;18.10;99.90;;;;;;5397369;26;20094;-70
2024/04/13 08:51:54;;;;;;;10.05;4.75;;;18.10;99.90;;;;;;5407506;26;20005;-70
2024/04/13 08:54:20;;;;;;;10.93;4.68;;;18.10;99.90;;;;;;5399747;26;20605;-70
2024/04/13 08:56:47;;;;;;;12.07;5.80;;;18.20;99.90;;;;;;5394982;26;20543;-70
2024/04/13 08:59:14;;;;;;;9.75;4.90;;;18.10;99.90;;;;;;5392855;26;20445;-70
2024/04/13 09:01:43;;;;;;;12.80;4.55;;;18.20;99.90;;;;;;5405835;26;20003;-70
2024/04/13 09:04:10;;;;;;;15.45;5.45;;;18.30;99.90;;;;;;5399747;26;20457;-71
2024/04/13 09:06:36;;;;;;;10.52;4.55;;;18.30;99.90;;;;;;5406781;26;20072;-71
2024/04/13 09:09:08;;;;;;;10.18;4.63;;;18.20;99.90;;;;;;5398040;26;20064;-70
2024/04/13 09:11:36;;;;;;;9.50;4.80;;;18.20;99.90;;;;;;5400850;26;19997;-70
2024/04/13 09:14:03;;;;;;;10.77;4.40;;;18.30;99.90;;;;;;5401075;26;20004;-71
2024/04/13 09:16:29;;;;;;;55.70;7.20;;;18.30;99.90;;;;;;5399170;26;20001;-71
2024/04/13 09:18:56;;;;;;;18.55;4.80;;;18.40;99.90;;;;;;5394595;26;20013;-71
2024/04/13 09:21:21;;;;;;;18.02;5.10;;;18.50;99.90;;;;;;5393096;26;20273;-71
2024/04/13 09:23:49;;;;;;;16.23;6.93;;;18.60;99.90;;;;;;5407322;26;20004;-70
2024/04/13 09:26:15;;;;;;;12.05;3.78;;;18.60;99.90;;;;;;5395380;26;20012;-70
2024/04/13 09:28:42;;;;;;;15.98;5.32;;;18.60;99.90;;;;;;5386342;26;20015;-71
2024/04/13 09:31:15;;;;;;;18.98;4.75;;;18.70;99.90;;;;;;5406371;26;20014;-70
2024/04/13 09:33:49;;;;;;;19.90;7.57;;;18.70;99.90;;;;;;5400102;26;20230;-71
2024/04/13 09:36:26;;;;;;;17.48;4.72;;;18.80;99.90;;;;;;5405558;26;20008;-70
2024/04/13 09:38:55;;;;;;;10.23;3.67;;;18.80;99.90;;;;;;5403186;26;19996;-72
2024/04/13 09:41:22;;;;;;;15.05;4.43;;;18.90;99.90;;;;;;5396952;26;20011;-72
2024/04/13 09:43:49;;;;;;;10.82;3.60;;;18.90;99.90;;;;;;5396991;26;20007;-71
2024/04/13 09:46:15;;;;;;;14.57;6.80;;;19.00;99.90;;;;;;5403206;26;20019;-71
2024/04/13 09:48:40;;;;;;;19.42;6.60;;;19.00;99.90;;;;;;5400244;26;20525;-70
2024/04/13 09:51:06;;;;;;;12.45;5.55;;;19.00;99.90;;;;;;5391895;26;20009;-70
2024/04/13 09:53:31;;;;;;;12.55;6.03;;;19.10;99.90;;;;;;5399860;26;20003;-72
2024/04/13 09:55:57;;;;;;;11.60;5.80;;;19.20;99.90;;;;;;5404186;26;20028;-71
2024/04/13 09:58:24;;;;;;;15.57;5.80;;;19.20;99.90;;;;;;5404349;26;19994;-71
2024/04/13 10:00:50;;;;;;;15.52;6.25;;;19.20;99.90;;;;;;5386874;26;20035;-72
2024/04/13 10:03:16;;;;;;;19.58;5.72;;;19.20;99.90;;;;;;5401536;26;19992;-71
2024/04/13 10:05:46;;;;;;;13.65;5.70;;;19.20;99.90;;;;;;5406225;26;19999;-71
2024/04/13 10:08:12;;;;;;;13.43;5.43;;;19.20;99.90;;;;;;5402894;26;20021;-72
2024/04/13 10:10:44;;;;;;;9.30;4.00;;;19.40;99.90;;;;;;5400647;26;20014;-71
2024/04/13 10:13:14;;;;;;;18.38;4.53;;;19.40;99.90;;;;;;5392236;26;20105;-70
2024/04/13 10:15:42;;;;;;;13.13;4.32;;;19.40;99.90;;;;;;5397769;26;20389;-70
2024/04/13 10:18:08;;;;;;;11.95;4.50;;;19.40;99.90;;;;;;5401877;26;19995;-71
2024/04/13 10:20:36;;;;;;;13.18;4.90;;;19.40;99.90;;;;;;5400882;26;20003;-70
2024/04/13 10:23:10;;;;;;;14.63;4.30;;;19.40;99.90;;;;;;5387518;26;19995;-70
2024/04/13 10:25:36;;;;;;;17.00;4.63;;;19.40;99.90;;;;;;5406665;26;20004;-71
2024/04/13 10:28:06;;;;;;;11.13;6.07;;;19.40;99.90;;;;;;5400320;26;20546;-72
2024/04/13 10:30:45;;;;;;;11.57;3.80;;;19.40;99.90;;;;;;5397349;26;20751;-72
2024/04/13 10:33:22;;;;;;;10.50;4.75;;;19.30;99.90;;;;;;5403322;26;20011;-70
2024/04/13 10:35:55;;;;;;;8.70;4.05;;;19.10;99.90;;;;;;5399339;26;20032;-70
2024/04/13 10:38:20;;;;;;;9.45;4.53;;;19.30;99.90;;;;;;5402166;26;20071;-70
2024/04/13 10:40:46;;;;;;;9.27;3.17;;;19.30;99.90;;;;;;5400560;26;20011;-71
2024/04/13 10:43:19;;;;;;;15.48;2.53;;;19.20;99.90;;;;;;5396942;26;20463;-71
2024/04/13 10:46:01;;;;;;;6.43;2.60;;;19.30;99.90;;;;;;5404064;26;19998;-70
2024/04/13 10:48:31;;;;;;;6.90;3.15;;;19.20;99.90;;;;;;5401287;26;20009;-71
2024/04/13 10:50:58;;;;;;;16.08;6.50;;;19.30;99.90;;;;;;5398714;26;20071;-71
2024/04/13 10:53:27;;;;;;;28.00;14.05;;;19.40;99.90;;;;;;5386833;26;20560;-69
2024/04/13 10:55:55;;;;;;;8.55;4.03;;;19.30;99.90;;;;;;5401531;26;20032;-71
2024/04/13 10:58:28;;;;;;;9.23;3.50;;;19.20;99.90;;;;;;5402467;26;20576;-70
2024/04/13 11:00:54;;;;;;;7.32;3.15;;;19.20;99.90;;;;;;5405063;26;20007;-70
2024/04/13 11:03:19;;;;;;;10.98;4.60;;;19.10;99.90;;;;;;5400008;26;20023;-71
2024/04/13 11:05:46;;;;;;;4.85;3.15;;;19.20;99.90;;;;;;5400157;26;20456;-71
2024/04/13 11:08:12;;;;;;;6.13;3.50;;;19.20;99.90;;;;;;5396259;26;20004;-72
2024/04/13 11:10:40;;;;;;;8.73;3.10;;;19.30;99.90;;;;;;5401822;26;20014;-72
2024/04/13 11:13:06;;;;;;;8.60;2.25;;;19.30;99.90;;;;;;5403496;26;20778;-70
2024/04/13 11:15:32;;;;;;;5.43;2.28;;;19.20;99.90;;;;;;5391813;26;20126;-72
2024/04/13 11:17:58;;;;;;;5.95;2.85;;;19.40;99.90;;;;;;5392364;26;20001;-71
2024/04/13 11:20:29;;;;;;;4.60;2.55;;;19.30;99.90;;;;;;5398783;26;19999;-71
2024/04/13 11:22:56;;;;;;;7.45;2.42;;;19.10;99.90;;;;;;5398170;26;20084;-71
2024/04/13 11:25:23;;;;;;;3.67;2.20;;;19.00;99.90;;;;;;5390637;26;20068;-70
2024/04/13 11:27:49;;;;;;;3.30;2.17;;;19.00;99.90;;;;;;5396529;26;20464;-71
2024/04/13 11:30:16;;;;;;;4.97;2.85;;;18.90;99.90;;;;;;5403515;26;20003;-69
2024/04/13 11:32:41;;;;;;;3.88;2.03;;;18.80;99.90;;;;;;5404694;26;20054;-70
2024/04/13 11:35:14;;;;;;;8.13;4.20;;;18.90;99.90;;;;;;5401994;26;20008;-70
2024/04/13 11:37:39;;;;;;;18.10;5.50;;;18.90;99.90;;;;;;5400260;26;20014;-71
2024/04/13 11:40:09;;;;;;;7.43;3.20;;;19.10;99.90;;;;;;5390015;26;19996;-71
2024/04/13 11:42:39;;;;;;;7.20;4.78;;;19.20;99.90;;;;;;5399495;26;20326;-70
2024/04/13 11:45:05;;;;;;;5.90;2.72;;;19.40;99.90;;;;;;5401642;26;20012;-71
2024/04/13 11:47:31;;;;;;;7.20;3.10;;;19.50;99.90;;;;;;5388569;26;20012;-71
2024/04/13 11:49:57;;;;;;;9.20;4.20;;;19.40;99.90;;;;;;5384171;26;20342;-72
2024/04/13 11:52:22;;;;;;;7.47;3.30;;;19.50;99.90;;;;;;5399107;26;20062;-72
2024/04/13 11:54:48;;;;;;;8.10;3.10;;;19.70;99.90;;;;;;5391754;26;20000;-71
2024/04/13 11:57:13;;;;;;;10.93;3.92;;;19.80;99.90;;;;;;5393479;26;20000;-70
2024/04/13 11:59:40;;;;;;;6.47;3.50;;;19.70;99.90;;;;;;5412433;26;20003;-71
2024/04/13 12:02:05;;;;;;;5.38;3.50;;;19.70;99.90;;;;;;5403675;26;20014;-73
2024/04/13 12:04:31;;;;;;;6.82;2.85;;;19.80;99.90;;;;;;5405367;26;20012;-71
2024/04/13 12:06:57;;;;;;;7.22;3.25;;;19.80;99.90;;;;;;5400424;26;20004;-71
2024/04/13 12:09:24;;;;;;;5.00;3.15;;;19.70;99.90;;;;;;5392829;26;20300;-70
2024/04/13 12:11:49;;;;;;;13.05;5.43;;;19.60;99.90;;;;;;5396293;26;20016;-70
2024/04/13 12:14:15;;;;;;;5.90;3.42;;;19.60;99.90;;;;;;5404226;26;20039;-71
2024/04/13 12:16:41;;;;;;;10.43;3.22;;;19.70;99.90;;;;;;5399103;26;20014;-69
2024/04/13 12:19:06;;;;;;;7.63;3.58;;;19.70;99.90;;;;;;5391354;26;20052;-70
2024/04/13 12:21:32;;;;;;;5.45;3.10;;;19.60;99.90;;;;;;5386627;26;20017;-71
2024/04/13 12:23:58;;;;;;;6.63;3.67;;;19.60;99.90;;;;;;5403755;26;20015;-71
2024/04/13 12:26:24;;;;;;;14.18;3.92;;;19.70;99.90;;;;;;5402739;26;20012;-71
2024/04/13 12:28:50;;;;;;;13.30;3.28;;;19.80;99.90;;;;;;5409537;26;20360;-70
2024/04/13 12:31:15;;;;;;;12.00;4.75;;;19.80;99.90;;;;;;5400258;26;20000;-71
2024/04/13 12:33:42;;;;;;;9.32;3.15;;;19.90;99.90;;;;;;5400940;26;20067;-72
2024/04/13 12:36:09;;;;;;;8.70;3.45;;;19.70;99.90;;;;;;5405381;26;19999;-71
2024/04/13 12:38:35;;;;;;;7.53;3.20;;;19.80;99.90;;;;;;5406678;26;20319;-70